Time;durP1;ratioP1;P1;durP2;ratioP2;P2;SDS_P1;SDS_P2;PMS_P1;PMS_P2;Temp;Humidity;BMP_temperature;BMP_pressure;BME280_temperature;BME280_humidity;BME280_pressure;Samples;Min_cycle;Max_cycle;Signal;HPM_P1;HPM_P2
2023/03/06 00:03:32;;;;;;;10.50;6.40;;;;;;;1.45;100.00;99354.98;180226;1268;43880;-83
2023/03/06 00:07:35;;;;;;;11.00;7.20;;;;;;;1.48;100.00;99350.61;180309;1270;44210;-83
2023/03/06 00:11:38;;;;;;;9.00;5.50;;;;;;;1.54;100.00;99347.81;180059;1268;58118;-83
2023/03/06 00:15:41;;;;;;;10.00;7.30;;;;;;;1.57;100.00;99343.63;180358;1268;43987;-83
2023/03/06 00:19:44;;;;;;;8.00;6.30;;;;;;;1.63;100.00;99335.59;180183;1269;44126;-83
2023/03/06 00:23:47;;;;;;;10.50;5.30;;;;;;;1.63;100.00;99330.39;180216;1268;43787;-83
2023/03/06 00:27:50;;;;;;;11.10;6.50;;;;;;;1.67;100.00;99332.35;180131;1269;44153;-83
2023/03/06 00:31:54;;;;;;;10.40;5.00;;;;;;;1.69;100.00;99332.27;180331;1268;59060;-83
2023/03/06 00:35:58;;;;;;;9.10;7.80;;;;;;;1.75;100.00;99327.31;180104;1269;44026;-84
2023/03/06 00:40:03;;;;;;;12.80;7.20;;;;;;;1.85;100.00;99322.94;180162;1268;43881;-84
2023/03/06 00:44:06;;;;;;;8.40;5.60;;;;;;;1.95;100.00;99320.02;180117;1268;44019;-84
2023/03/06 00:48:09;;;;;;;9.70;5.90;;;;;;;2.04;100.00;99312.98;180033;1272;44340;-84
2023/03/06 00:52:17;;;;;;;14.10;7.20;;;;;;;2.07;100.00;99305.48;180150;1270;58340;-81
2023/03/06 00:56:21;;;;;;;9.10;6.50;;;;;;;2.10;100.00;99299.70;180056;1268;44074;-81
2023/03/06 01:00:24;;;;;;;9.20;7.00;;;;;;;2.13;100.00;99290.95;180121;1268;44047;-82
2023/03/06 01:04:27;;;;;;;14.20;9.50;;;;;;;2.14;100.00;99287.38;180015;1269;47365;-81
2023/03/06 01:08:30;;;;;;;11.70;7.80;;;;;;;2.22;100.00;99287.23;180054;1268;44273;-82
2023/03/06 01:12:34;;;;;;;9.20;7.00;;;;;;;2.26;100.00;99285.79;180306;1269;59459;-81
2023/03/06 01:16:37;;;;;;;9.70;7.60;;;;;;;2.30;100.00;99279.05;179936;1268;43885;-82
2023/03/06 01:20:40;;;;;;;8.30;5.90;;;;;;;2.33;100.00;99277.59;180099;1268;43907;-81
2023/03/06 01:24:43;;;;;;;9.00;7.00;;;;;;;2.35;100.00;99277.67;180391;1268;43898;-82
2023/03/06 01:28:46;;;;;;;10.30;7.70;;;;;;;2.33;100.00;99269.78;180108;1271;44066;-82
2023/03/06 01:32:49;;;;;;;10.10;7.00;;;;;;;2.24;100.00;99264.70;180112;1272;58369;-82
2023/03/06 01:36:53;;;;;;;13.00;7.70;;;;;;;2.18;100.00;99259.50;180242;1268;44169;-81
2023/03/06 01:40:57;;;;;;;15.00;8.80;;;;;;;2.11;100.00;99257.98;180046;1269;43887;-81
2023/03/06 01:45:13;;;;;;;12.70;8.50;;;;;;;2.07;100.00;99250.18;180080;1270;44101;-81
2023/03/06 01:49:21;;;;;;;10.10;7.80;;;;;;;2.01;100.00;99243.42;180181;1269;43770;-82
2023/03/06 01:58:11;;;;;;;14.10;8.40;;;;;;;1.98;100.00;99236.77;169032;1266;76481;-68
2023/03/06 02:02:15;;;;;;;16.70;9.00;;;;;;;1.92;100.00;99231.02;180984;1267;43321;-71
2023/03/06 02:06:23;;;;;;;10.50;6.90;;;;;;;1.92;100.00;99223.84;181037;1267;43033;-69
2023/03/06 02:10:27;;;;;;;11.10;7.30;;;;;;;1.90;100.00;99213.86;180918;1267;42982;-70
2023/03/06 02:15:20;;;;;;;18.30;9.00;;;;;;;1.91;100.00;99206.83;180952;1267;57910;-69
2023/03/06 02:19:52;;;;;;;13.60;10.20;;;;;;;1.94;100.00;99205.91;180948;1271;43126;-70
2023/03/06 02:24:11;;;;;;;10.70;7.60;;;;;;;1.91;100.00;99193.31;181081;1266;43493;-69
2023/03/06 02:28:17;;;;;;;13.70;9.00;;;;;;;1.89;100.00;99187.85;181067;1267;43671;-71
2023/03/06 02:32:20;;;;;;;15.80;11.20;;;;;;;1.82;100.00;99187.59;180970;1267;43666;-71
2023/03/06 02:36:23;;;;;;;11.60;7.00;;;;;;;1.92;100.00;99190.30;181063;1267;59170;-73
2023/03/06 02:40:25;;;;;;;11.10;8.80;;;;;;;1.92;100.00;99184.88;181016;1267;43645;-71
2023/03/06 02:44:34;;;;;;;12.40;9.10;;;;;;;1.96;100.00;99177.27;180931;1266;43739;-71
2023/03/06 02:48:37;;;;;;;9.40;8.20;;;;;;;2.05;100.00;99178.44;180900;1267;43626;-71
2023/03/06 02:52:40;;;;;;;9.10;6.70;;;;;;;2.13;100.00;99172.52;180963;1266;43136;-74
2023/03/06 02:57:10;;;;;;;11.90;8.10;;;;;;;2.13;100.00;99163.42;180982;1267;59391;-72
2023/03/06 03:01:13;;;;;;;10.90;7.80;;;;;;;2.00;100.00;99157.77;181031;1267;43458;-72
2023/03/06 03:06:17;;;;;;;11.30;8.90;;;;;;;1.93;100.00;99156.84;180948;1266;43756;-71
2023/03/06 03:10:19;;;;;;;12.40;6.90;;;;;;;1.81;100.00;99152.52;180932;1267;43129;-72
2023/03/06 03:14:23;;;;;;;19.00;10.10;;;;;;;1.76;100.00;99150.05;181024;1267;43047;-72
2023/03/06 03:18:26;;;;;;;11.60;7.60;;;;;;;1.80;100.00;99147.50;180975;1267;59838;-72
2023/03/06 03:22:29;;;;;;;9.90;6.80;;;;;;;1.82;100.00;99144.91;181026;1267;43390;-72
2023/03/06 03:27:00;;;;;;;14.00;7.70;;;;;;;1.89;100.00;99139.77;181015;1266;43111;-74
2023/03/06 03:31:05;;;;;;;13.10;8.20;;;;;;;1.91;100.00;99133.73;181007;1267;43126;-72
2023/03/06 03:35:58;;;;;;;11.90;6.60;;;;;;;1.94;100.00;99129.85;181020;1267;43076;-74
2023/03/06 03:40:03;;;;;;;14.00;9.80;;;;;;;2.01;100.00;99128.00;181018;1267;58319;-73
2023/03/06 03:49:44;;;;;;;13.10;10.80;;;;;;;2.09;100.00;99117.33;181029;1267;43622;-72
2023/03/06 03:53:48;;;;;;;12.00;8.40;;;;;;;2.12;100.00;99110.16;180971;1267;43400;-72
2023/03/06 03:57:51;;;;;;;10.40;8.60;;;;;;;2.14;100.00;99104.25;181091;1265;43723;-73
2023/03/06 04:01:54;;;;;;;12.30;8.40;;;;;;;2.13;100.00;99102.73;181055;1265;58077;-73
2023/03/06 04:06:18;;;;;;;13.00;9.10;;;;;;;2.24;100.00;99100.96;181114;1267;43028;-74
2023/03/06 04:10:21;;;;;;;17.90;8.90;;;;;;;2.36;100.00;99094.75;180970;1267;43059;-73
2023/03/06 04:14:43;;;;;;;11.40;8.60;;;;;;;2.44;100.00;99095.99;180997;1265;43430;-74
2023/03/06 04:18:46;;;;;;;14.60;10.70;;;;;;;2.53;100.00;99090.48;181010;1267;43199;-74
2023/03/06 04:23:02;;;;;;;10.90;8.40;;;;;;;2.54;100.00;99086.05;181051;1267;58080;-74
2023/03/06 04:27:04;;;;;;;11.90;8.50;;;;;;;2.57;100.00;99092.85;180996;1267;43693;-74
2023/03/06 04:31:14;;;;;;;12.30;8.60;;;;;;;2.59;100.00;99089.21;181110;1265;43763;-75
2023/03/06 04:35:17;;;;;;;10.40;7.40;;;;;;;2.59;100.00;99084.13;181073;1267;43600;-74
2023/03/06 04:44:07;;;;;;;11.10;9.90;;;;;;;2.55;100.00;99077.91;144653;1270;74912;-72
2023/03/06 05:13:16;;;;;;;9.00;6.70;;;;;;;2.50;100.00;99059.36;181067;1265;42979;-71
2023/03/06 05:17:22;;;;;;;7.90;6.20;;;;;;;2.56;100.00;99054.93;181054;1267;57177;-72
2023/03/06 05:21:25;;;;;;;10.00;6.60;;;;;;;2.59;100.00;99056.48;180989;1267;43111;-75
2023/03/06 05:25:28;;;;;;;9.70;6.30;;;;;;;2.56;100.00;99058.24;181034;1266;43962;-71
2023/03/06 05:29:35;;;;;;;10.50;8.30;;;;;;;2.63;100.00;99052.53;180972;1265;43765;-72
2023/03/06 05:33:38;;;;;;;10.00;7.40;;;;;;;2.71;100.00;99054.23;181072;1267;43630;-73
2023/03/06 05:37:41;;;;;;;12.50;7.20;;;;;;;2.72;100.00;99059.63;181045;1267;57355;-72
2023/03/06 05:41:55;;;;;;;6.00;5.40;;;;;;;2.75;100.00;99060.48;181002;1267;43746;-72
2023/03/06 05:46:04;;;;;;;9.70;5.80;;;;;;;2.72;100.00;99058.55;181005;1267;43048;-73
2023/03/06 05:50:09;;;;;;;9.10;6.80;;;;;;;2.77;100.00;99058.23;180710;1270;43097;-74
2023/03/06 06:13:56;;;;;;;8.70;6.50;;;;;;;2.88;99.96;99059.23;156892;1262;74701;-72
2023/03/06 06:23:29;;;;;;;10.40;7.00;;;;;;;2.98;98.67;99058.90;178653;1265;76465;-73
2023/03/06 06:27:33;;;;;;;7.30;4.70;;;;;;;2.95;97.97;99059.96;181062;1265;43169;-75
2023/03/06 06:31:39;;;;;;;11.00;7.90;;;;;;;2.96;97.96;99059.20;181063;1265;43017;-74
2023/03/06 06:35:46;;;;;;;9.30;7.20;;;;;;;2.97;97.92;99059.65;181083;1265;43096;-73
2023/03/06 06:39:49;;;;;;;8.60;6.60;;;;;;;2.96;97.51;99058.65;180997;1265;43015;-73
2023/03/06 06:43:52;;;;;;;7.10;6.20;;;;;;;3.05;97.13;99058.25;181074;1265;59358;-74
2023/03/06 06:48:03;;;;;;;9.30;8.10;;;;;;;3.11;96.56;99061.85;181052;1265;43107;-73
2023/03/06 06:52:06;;;;;;;10.70;8.20;;;;;;;3.22;96.07;99059.70;181115;1265;43743;-74
2023/03/06 07:16:04;;;;;;;;;;;;;;;3.50;93.11;99066.62;149365;1264;78188;-72
2023/03/06 07:29:57;;;;;;;9.70;6.40;;;;;;;3.83;92.30;99069.48;172419;1264;77099;-72
2023/03/06 07:34:00;;;;;;;12.10;7.10;;;;;;;3.98;92.41;99071.77;181042;1267;43439;-73
2023/03/06 07:38:06;;;;;;;12.30;9.60;;;;;;;4.07;91.68;99070.60;181048;1267;42986;-72
2023/03/06 07:42:12;;;;;;;12.70;8.30;;;;;;;4.17;91.60;99070.55;180941;1267;43119;-72
2023/03/06 07:46:18;;;;;;;12.60;9.70;;;;;;;4.31;89.88;99071.65;180927;1267;43808;-73
2023/03/06 07:50:21;;;;;;;14.60;11.80;;;;;;;4.43;88.17;99072.12;180970;1267;59372;-72
2023/03/06 07:54:25;;;;;;;13.50;8.80;;;;;;;4.58;88.20;99073.30;180995;1267;43045;-72
2023/03/06 07:58:55;;;;;;;13.50;10.40;;;;;;;4.68;86.83;99075.49;180945;1267;42976;-71
2023/03/06 08:02:58;;;;;;;10.90;8.30;;;;;;;4.80;86.15;99080.89;180953;1267;43048;-73
2023/03/06 08:07:02;;;;;;;11.70;7.30;;;;;;;4.82;84.94;99079.22;181012;1268;42998;-71
2023/03/06 08:11:06;;;;;;;10.60;7.60;;;;;;;4.88;84.12;99081.02;180954;1268;58156;-71
2023/03/06 08:15:10;;;;;;;8.20;6.40;;;;;;;4.95;84.21;99082.71;180980;1267;43704;-70
2023/03/06 08:19:14;;;;;;;11.50;8.80;;;;;;;5.00;83.32;99079.70;181080;1267;42985;-72
2023/03/06 08:37:18;;;;;;;11.10;8.50;;;;;;;5.66;80.89;99086.16;146972;1263;75905;-70
2023/03/06 08:46:09;;;;;;;13.00;9.30;;;;;;;6.04;80.52;99088.05;171574;1263;81184;-84
2023/03/06 08:55:02;;;;;;;17.00;12.90;;;;;;;6.28;78.63;99084.50;173840;1263;75332;-72
2023/03/06 08:59:08;;;;;;;21.30;12.30;;;;;;;6.26;78.42;99089.10;181005;1266;43828;-72
2023/03/06 09:03:11;;;;;;;15.40;11.40;;;;;;;6.23;78.62;99091.46;181042;1267;43399;-73
2023/03/06 09:07:15;;;;;;;16.00;10.00;;;;;;;6.14;77.83;99094.47;181060;1266;43834;-74
2023/03/06 09:11:19;;;;;;;17.20;11.10;;;;;;;6.07;77.23;99088.38;181116;1267;43684;-73
2023/03/06 09:15:50;;;;;;;16.90;12.40;;;;;;;6.08;78.21;99090.59;181064;1266;58265;-73
2023/03/06 09:19:52;;;;;;;16.90;11.60;;;;;;;6.09;78.23;99088.20;181079;1266;43944;-74
2023/03/06 09:23:55;;;;;;;18.70;13.20;;;;;;;6.16;78.55;99088.17;181063;1267;43009;-74
2023/03/06 09:27:59;;;;;;;15.90;10.80;;;;;;;6.26;78.67;99088.44;181001;1267;43777;-74
2023/03/06 09:32:38;;;;;;;14.60;11.10;;;;;;;6.39;78.32;99081.52;180693;1271;43018;-74
2023/03/06 09:36:42;;;;;;;15.50;9.50;;;;;;;6.61;77.81;99076.86;180725;1271;57919;-74
2023/03/06 09:41:40;;;;;;;11.70;10.30;;;;;;;6.83;78.31;99071.13;179721;1276;43111;-73
2023/03/06 09:45:44;;;;;;;14.00;10.20;;;;;;;6.69;74.72;99075.51;179730;1276;43099;-73
2023/03/06 10:01:00;;;;;;;12.80;8.50;;;;;;;6.79;75.58;99062.36;181033;1267;57914;-73
2023/03/06 10:05:06;;;;;;;10.90;8.30;;;;;;;6.78;74.14;99059.59;181034;1266;43057;-74
2023/03/06 10:09:30;;;;;;;12.70;9.30;;;;;;;6.74;74.87;99058.20;181094;1266;43052;-73
2023/03/06 10:14:11;;;;;;;14.70;8.20;;;;;;;6.67;74.16;99054.69;180988;1267;43179;-74
2023/03/06 10:18:32;;;;;;;15.80;10.10;;;;;;;6.56;74.43;99050.48;181062;1267;43037;-74
2023/03/06 10:28:40;;;;;;;26.10;9.70;;;;;;;6.22;78.27;99042.59;181063;1267;43011;-73
2023/03/06 10:32:54;;;;;;;11.70;7.90;;;;;;;6.27;76.15;99045.55;181017;1267;43642;-72
2023/03/06 10:37:17;;;;;;;10.30;7.60;;;;;;;6.31;77.19;99039.80;181067;1266;43722;-72
2023/03/06 10:41:23;;;;;;;9.90;8.40;;;;;;;6.28;75.54;99034.84;181085;1267;43068;-74
2023/03/06 10:45:26;;;;;;;11.50;8.00;;;;;;;6.40;76.51;99026.82;181056;1267;57929;-72
2023/03/06 10:49:35;;;;;;;16.10;8.10;;;;;;;6.53;75.21;99017.67;181006;1267;43132;-73
2023/03/06 10:54:13;;;;;;;15.70;10.20;;;;;;;6.72;74.60;99016.17;181013;1266;43714;-72
2023/03/06 10:58:21;;;;;;;;;;;;;;;6.83;73.32;99012.47;181078;1267;43201;-73
2023/03/06 11:02:30;;;;;;;13.30;9.20;;;;;;;7.00;74.06;99014.38;181018;1267;42850;-73
2023/03/06 11:06:34;;;;;;;13.90;9.30;;;;;;;7.02;73.66;99003.64;181040;1267;58264;-72
2023/03/06 11:10:38;;;;;;;16.00;11.00;;;;;;;7.15;72.96;99003.86;181049;1267;43039;-72
2023/03/06 11:15:22;;;;;;;11.20;8.80;;;;;;;7.15;73.88;99000.16;181062;1266;43068;-72
2023/03/06 11:19:28;;;;;;;12.20;8.00;;;;;;;6.88;72.12;99002.14;180995;1267;43430;-72
2023/03/06 11:23:53;;;;;;;12.00;9.30;;;;;;;6.60;72.70;98993.81;181061;1266;43296;-72
2023/03/06 11:28:23;;;;;;;12.70;6.70;;;;;;;6.37;72.70;98994.53;181072;1267;58227;-74
2023/03/06 11:32:56;;;;;;;10.50;8.40;;;;;;;6.24;74.28;98993.27;181075;1267;43792;-71
2023/03/06 11:37:24;;;;;;;9.80;7.80;;;;;;;6.21;73.08;98993.52;181086;1266;43020;-72
2023/03/06 11:41:42;;;;;;;8.90;7.00;;;;;;;6.25;71.69;98993.44;181034;1267;43524;-72
2023/03/06 11:46:24;;;;;;;11.70;7.60;;;;;;;6.07;73.91;98992.98;181071;1267;43755;-72
2023/03/06 11:50:35;;;;;;;9.70;6.40;;;;;;;5.94;73.60;98988.35;181039;1266;59342;-73
2023/03/06 11:54:38;;;;;;;9.00;7.30;;;;;;;5.94;75.04;98984.84;180987;1267;43217;-72
2023/03/06 11:59:19;;;;;;;10.00;6.50;;;;;;;6.02;75.83;98973.85;181035;1267;43778;-74
2023/03/06 12:04:10;;;;;;;14.40;8.80;;;;;;;6.08;73.66;98968.77;181047;1267;43181;-73
2023/03/06 12:08:19;;;;;;;11.80;9.70;;;;;;;6.13;74.27;98964.30;180599;1271;43031;-73
2023/03/06 12:12:43;;;;;;;8.50;7.50;;;;;;;6.04;74.57;98968.23;180631;1271;59167;-74
2023/03/06 12:17:25;;;;;;;13.80;8.30;;;;;;;6.08;73.61;98962.80;180810;1271;43463;-72
2023/03/06 12:59:21;;;;;;;12.40;8.30;;;;;;;4.45;99.52;98981.89;180835;1263;79819;-72
2023/03/06 13:04:15;;;;;;;17.70;10.50;;;;;;;4.65;99.91;98960.52;180914;1267;78431;-73
2023/03/06 13:08:56;;;;;;;11.40;10.10;;;;;;;4.95;99.42;98950.08;181070;1267;42953;-74
2023/03/06 13:17:50;;;;;;;14.10;12.30;;;;;;;5.68;97.25;98939.49;180981;1267;42985;-72
2023/03/06 13:21:56;;;;;;;17.60;10.00;;;;;;;5.84;91.47;98934.67;181009;1266;57936;-73
2023/03/06 13:26:02;;;;;;;13.30;10.60;;;;;;;6.05;91.33;98931.67;181039;1267;43262;-72
2023/03/06 13:30:37;;;;;;;13.80;10.00;;;;;;;6.19;91.38;98928.25;181000;1267;42998;-73
2023/03/06 13:34:42;;;;;;;12.40;8.90;;;;;;;6.36;87.35;98924.16;181018;1267;43343;-72
2023/03/06 13:38:47;;;;;;;14.90;12.20;;;;;;;6.41;84.43;98922.69;180949;1267;43443;-72
2023/03/06 13:47:49;;;;;;;14.50;10.20;;;;;;;6.51;84.56;98916.05;180099;1268;44339;-84
2023/03/06 13:52:31;;;;;;;17.90;12.10;;;;;;;6.53;84.38;98911.11;180292;1269;43752;-84
2023/03/06 13:56:52;;;;;;;18.50;12.20;;;;;;;6.59;83.28;98913.20;179806;1269;44198;-82
2023/03/06 14:01:26;;;;;;;21.70;14.80;;;;;;;6.63;83.25;98918.48;180092;1269;43732;-84
2023/03/06 14:05:43;;;;;;;11.90;8.00;;;;;;;6.48;81.65;98913.31;178570;1276;57948;-82
2023/03/06 14:09:57;;;;;;;9.40;8.30;;;;;;;6.41;81.90;98907.34;178381;1276;44217;-82
2023/03/06 14:14:00;;;;;;;11.10;9.90;;;;;;;6.49;81.67;98903.03;178437;1276;44570;-82
2023/03/06 14:18:06;;;;;;;15.20;10.20;;;;;;;6.56;80.05;98900.77;178435;1279;44443;-83
2023/03/06 14:22:17;;;;;;;12.50;9.40;;;;;;;6.62;80.43;98898.51;178357;1276;43912;-83
2023/03/06 14:26:25;;;;;;;12.90;10.60;;;;;;;6.62;80.94;98894.45;178418;1276;59306;-83
2023/03/06 14:30:28;;;;;;;12.30;8.60;;;;;;;6.73;80.56;98892.95;178516;1276;43780;-83
2023/03/06 14:34:38;;;;;;;10.20;8.70;;;;;;;6.83;77.72;98893.36;178252;1276;44456;-82
2023/03/06 14:38:46;;;;;;;13.20;8.50;;;;;;;6.89;77.02;98895.46;178492;1276;43838;-83
2023/03/06 14:43:08;;;;;;;12.50;9.00;;;;;;;6.89;77.88;98895.85;179403;1268;44226;-83
2023/03/06 14:47:29;;;;;;;11.30;9.70;;;;;;;6.87;77.56;98887.36;179923;1267;59991;-83
2023/03/06 14:51:41;;;;;;;11.70;8.50;;;;;;;6.89;77.71;98883.69;179559;1270;44168;-83
2023/03/06 14:55:59;;;;;;;13.50;10.40;;;;;;;6.87;78.16;98881.90;179590;1270;44003;-82
2023/03/06 15:00:04;;;;;;;13.40;8.40;;;;;;;6.82;77.13;98880.35;179679;1269;44281;-82
2023/03/06 15:04:22;;;;;;;12.10;9.30;;;;;;;6.78;78.05;98878.49;179812;1268;44194;-82
2023/03/06 15:08:30;;;;;;;11.70;9.30;;;;;;;6.76;78.07;98874.95;179998;1269;57538;-82
2023/03/06 15:12:35;;;;;;;13.80;11.70;;;;;;;6.79;78.48;98873.27;179872;1270;44198;-82
2023/03/06 15:16:38;;;;;;;14.40;11.00;;;;;;;6.79;78.29;98870.75;179781;1269;44081;-82
2023/03/06 15:20:46;;;;;;;14.30;11.10;;;;;;;6.76;78.15;98872.86;180116;1267;44101;-83
2023/03/06 15:24:49;;;;;;;15.90;10.10;;;;;;;6.66;78.18;98873.45;180048;1268;44233;-83
2023/03/06 15:28:55;;;;;;;12.80;10.80;;;;;;;6.59;78.71;98874.48;179662;1268;57605;-83
2023/03/06 15:33:23;;;;;;;20.30;13.70;;;;;;;6.57;79.55;98879.61;179877;1268;44344;-82
2023/03/06 15:37:28;;;;;;;21.90;12.60;;;;;;;6.54;79.75;98878.05;179831;1269;43837;-82
2023/03/06 15:41:36;;;;;;;20.60;14.30;;;;;;;6.50;79.73;98881.26;179895;1267;43827;-82
2023/03/06 15:45:39;;;;;;;19.20;13.60;;;;;;;6.33;78.90;98882.30;179904;1267;44156;-82
2023/03/06 15:49:42;;;;;;;19.50;15.30;;;;;;;6.10;79.27;98884.33;180005;1270;58406;-81
2023/03/06 15:53:45;;;;;;;23.60;14.10;;;;;;;5.94;80.79;98886.35;179642;1267;44164;-82
2023/03/06 15:57:58;;;;;;;19.80;13.60;;;;;;;5.80;83.75;98886.08;179855;1268;43926;-83
2023/03/06 16:02:13;;;;;;;21.60;15.10;;;;;;;5.66;85.95;98888.64;179757;1269;43882;-82
2023/03/06 16:06:18;;;;;;;21.40;13.30;;;;;;;5.59;86.58;98891.69;179702;1270;44727;-82
2023/03/06 16:10:24;;;;;;;16.80;12.30;;;;;;;5.55;86.46;98890.23;180192;1267;59671;-82
2023/03/06 16:14:27;;;;;;;20.60;13.90;;;;;;;5.52;85.57;98889.43;180234;1267;43798;-84
2023/03/06 16:18:30;;;;;;;25.40;14.00;;;;;;;5.49;85.67;98891.48;179907;1269;44217;-84
2023/03/06 16:22:33;;;;;;;24.90;14.50;;;;;;;5.45;85.90;98898.46;179740;1269;43982;-84
2023/03/06 16:26:37;;;;;;;20.70;14.10;;;;;;;5.38;86.02;98898.02;179858;1268;43734;-83
2023/03/06 16:30:42;;;;;;;17.60;14.70;;;;;;;5.35;86.12;98898.98;179736;1269;59570;-83
2023/03/06 16:34:45;;;;;;;22.20;16.40;;;;;;;5.27;85.82;98904.88;179747;1267;43958;-83
2023/03/06 16:38:50;;;;;;;19.30;13.70;;;;;;;5.19;85.68;98906.75;180198;1268;43768;-84
2023/03/06 16:42:54;;;;;;;19.70;15.30;;;;;;;5.12;85.66;98910.09;179821;1269;44234;-85
2023/03/06 16:46:59;;;;;;;19.70;13.90;;;;;;;5.07;85.53;98913.17;179748;1268;44365;-85
2023/03/06 16:51:02;;;;;;;18.50;14.80;;;;;;;5.01;85.32;98915.71;179774;1267;58370;-85
2023/03/06 16:55:06;;;;;;;19.50;11.80;;;;;;;4.92;85.25;98916.46;179740;1267;43967;-85
2023/03/06 16:59:09;;;;;;;26.90;16.30;;;;;;;4.79;85.49;98916.02;178621;1269;1518490;-85
2023/03/06 17:03:12;;;;;;;21.80;15.50;;;;;;;4.72;85.53;98916.22;179778;1269;43779;-85
2023/03/06 17:07:16;;;;;;;20.60;14.10;;;;;;;4.64;85.24;98920.80;179774;1269;43898;-84
2023/03/06 17:11:19;;;;;;;19.00;13.40;;;;;;;4.60;85.27;98920.51;179766;1269;60686;-84
2023/03/06 17:15:23;;;;;;;20.40;12.10;;;;;;;4.55;84.91;98920.75;179602;1269;44066;-84
2023/03/06 17:19:26;;;;;;;18.80;12.90;;;;;;;4.43;85.22;98921.54;179836;1269;43692;-85
2023/03/06 17:23:29;;;;;;;22.00;14.70;;;;;;;4.40;85.45;98928.23;179728;1268;44069;-84
2023/03/06 17:27:34;;;;;;;21.10;14.40;;;;;;;4.40;85.26;98927.19;179688;1270;44112;-84
2023/03/06 17:31:38;;;;;;;17.30;12.90;;;;;;;4.32;85.56;98931.12;180114;1267;58683;-85
2023/03/06 17:35:41;;;;;;;18.60;13.00;;;;;;;4.17;86.09;98930.89;179888;1269;43838;-84
2023/03/06 17:39:45;;;;;;;22.70;14.20;;;;;;;4.09;86.37;98934.76;179939;1269;44143;-85
2023/03/06 17:43:49;;;;;;;21.50;16.40;;;;;;;4.07;86.81;98939.69;179846;1269;44039;-84
2023/03/06 17:47:53;;;;;;;24.50;16.00;;;;;;;4.12;87.01;98936.84;179899;1269;43942;-84
2023/03/06 17:51:58;;;;;;;17.00;13.20;;;;;;;4.17;86.67;98939.48;179855;1268;59688;-84
2023/03/06 17:56:03;;;;;;;19.90;14.70;;;;;;;4.20;86.60;98939.22;179591;1270;43994;-84
2023/03/06 18:00:08;;;;;;;20.80;14.50;;;;;;;4.15;87.44;98939.80;179886;1269;44185;-83
2023/03/06 18:04:12;;;;;;;21.20;13.70;;;;;;;4.11;87.67;98940.45;180108;1269;43866;-83
2023/03/06 18:08:14;;;;;;;24.50;14.40;;;;;;;4.17;87.32;98937.93;179601;1270;43955;-83
2023/03/06 18:12:17;;;;;;;20.90;14.60;;;;;;;4.15;87.38;98943.15;179806;1269;59514;-83
2023/03/06 18:16:23;;;;;;;28.50;17.10;;;;;;;4.09;87.78;98942.52;179781;1268;43933;-84
2023/03/06 18:20:27;;;;;;;24.50;17.00;;;;;;;3.94;89.52;98948.73;179690;1268;44801;-83
2023/03/06 18:24:30;;;;;;;29.40;18.50;;;;;;;3.80;90.92;98959.22;179999;1268;44145;-83
2023/03/06 18:28:33;;;;;;;33.60;20.20;;;;;;;3.63;93.59;98959.27;180159;1269;44255;-83
2023/03/06 18:32:36;;;;;;;27.90;20.10;;;;;;;3.62;94.59;98969.50;179906;1267;59634;-83
2023/03/06 18:36:41;;;;;;;26.80;19.00;;;;;;;3.73;96.44;98973.65;179829;1269;44098;-83
2023/03/06 18:40:45;;;;;;;15.90;12.70;;;;;;;3.76;97.64;98974.81;180042;1268;43823;-81
2023/03/06 18:44:48;;;;;;;15.20;10.80;;;;;;;3.73;98.18;98973.98;179858;1267;43976;-82
2023/03/06 18:48:51;;;;;;;14.00;10.90;;;;;;;3.70;97.71;98973.84;179667;1268;50819;-82
2023/03/06 18:52:54;;;;;;;12.90;9.80;;;;;;;3.67;98.03;98974.91;179665;1267;59026;-81
2023/03/06 18:56:57;;;;;;;12.50;9.20;;;;;;;3.63;98.64;98977.73;180001;1268;44008;-82
2023/03/06 19:01:07;;;;;;;12.60;9.30;;;;;;;3.62;98.95;98980.22;179668;1269;44118;-81
2023/03/06 19:05:10;;;;;;;12.50;9.10;;;;;;;3.58;99.14;98985.80;179475;1270;43829;-82
2023/03/06 19:09:14;;;;;;;15.80;11.70;;;;;;;3.56;99.12;98990.64;179870;1270;43836;-82
2023/03/06 19:13:17;;;;;;;10.90;7.90;;;;;;;3.52;98.55;98989.52;179844;1270;58335;-83
2023/03/06 19:17:20;;;;;;;8.10;6.60;;;;;;;3.45;97.28;98999.13;179614;1269;44087;-83
2023/03/06 19:21:27;;;;;;;12.00;8.20;;;;;;;3.48;96.97;99000.70;179648;1268;43913;-82
2023/03/06 19:25:31;;;;;;;13.50;9.20;;;;;;;3.44;97.43;99005.17;179870;1267;43936;-83
2023/03/06 19:29:34;;;;;;;8.70;7.60;;;;;;;3.35;97.84;99015.30;179560;1270;44063;-83
2023/03/06 19:33:38;;;;;;;12.20;9.90;;;;;;;3.35;97.77;99013.74;179917;1268;59456;-83
2023/03/06 19:37:41;;;;;;;11.00;7.60;;;;;;;3.22;98.57;99015.30;179708;1269;44063;-83
2023/03/06 19:41:47;;;;;;;13.50;9.60;;;;;;;3.17;97.98;99019.21;180104;1269;44061;-83
2023/03/06 19:45:50;;;;;;;10.30;8.20;;;;;;;3.17;97.90;99013.09;179915;1269;44087;-83
2023/03/06 19:49:53;;;;;;;15.40;9.70;;;;;;;3.19;98.21;99007.68;179888;1270;47903;-83
2023/03/06 19:53:56;;;;;;;13.80;9.50;;;;;;;3.22;98.21;99010.75;179953;1270;57945;-83
2023/03/06 19:57:59;;;;;;;14.20;9.40;;;;;;;3.25;98.22;99005.50;179902;1269;43734;-84
2023/03/06 20:02:02;;;;;;;17.30;10.30;;;;;;;3.26;97.99;98999.77;179667;1270;43839;-83
2023/03/06 20:06:11;;;;;;;14.60;9.70;;;;;;;3.28;97.69;99002.98;179891;1269;44300;-83
2023/03/06 20:10:14;;;;;;;15.30;10.10;;;;;;;3.35;97.59;99003.35;179978;1269;44098;-84
2023/03/06 20:14:18;;;;;;;16.30;12.80;;;;;;;3.43;97.08;99003.30;180073;1269;57926;-84
2023/03/06 20:18:21;;;;;;;14.60;11.30;;;;;;;3.50;96.44;99004.73;179786;1270;43697;-83
2023/03/06 20:22:24;;;;;;;14.50;11.10;;;;;;;3.54;95.49;99004.64;179797;1269;43921;-84
2023/03/06 20:26:28;;;;;;;15.40;10.10;;;;;;;3.52;94.97;99007.92;179818;1270;44061;-84
2023/03/06 20:30:31;;;;;;;15.80;9.70;;;;;;;3.53;94.68;99005.19;179956;1269;44500;-84
2023/03/06 20:34:40;;;;;;;17.00;11.20;;;;;;;3.53;94.92;99005.90;179751;1270;57940;-83
2023/03/06 20:38:45;;;;;;;13.30;9.60;;;;;;;3.57;94.82;99008.13;180168;1269;44061;-83
2023/03/06 20:42:48;;;;;;;11.10;8.40;;;;;;;3.59;94.37;99008.17;179902;1269;43917;-83
2023/03/06 20:46:51;;;;;;;15.10;11.20;;;;;;;3.63;94.30;99009.38;180091;1269;44251;-83
2023/03/06 22:01:27;;;;;;;10.30;7.70;;;;;;;3.06;98.64;98999.29;181117;1264;43666;-70
2023/03/06 22:06:05;;;;;;;13.00;10.20;;;;;;;3.06;98.78;98999.65;181216;1264;43823;-70
2023/03/06 22:10:11;;;;;;;8.60;7.00;;;;;;;3.04;98.98;98994.52;181175;1264;43823;-71
2023/03/06 22:14:33;;;;;;;9.40;8.20;;;;;;;3.03;99.12;98991.11;181058;1265;57913;-72
2023/03/06 22:18:36;;;;;;;10.50;7.40;;;;;;;3.07;99.04;98987.33;181112;1264;43078;-70
2023/03/06 22:23:14;;;;;;;13.70;9.50;;;;;;;3.07;99.16;98981.92;181074;1264;43035;-72
2023/03/06 22:27:17;;;;;;;15.40;8.10;;;;;;;3.07;99.22;98976.67;181089;1264;43116;-71
2023/03/06 22:31:50;;;;;;;12.40;8.60;;;;;;;3.05;99.56;98980.44;181100;1268;43082;-70
2023/03/06 22:36:01;;;;;;;15.00;10.30;;;;;;;3.04;99.99;98973.16;181224;1264;58149;-73
2023/03/06 22:40:18;;;;;;;15.30;10.00;;;;;;;3.10;100.00;98970.79;181164;1264;43658;-70
2023/03/06 22:44:44;;;;;;;14.10;9.40;;;;;;;3.16;99.83;98969.89;181070;1265;43649;-71
2023/03/06 22:48:47;;;;;;;20.80;13.80;;;;;;;3.30;100.00;98966.43;181089;1264;43239;-71
2023/03/06 22:52:50;;;;;;;29.70;17.20;;;;;;;3.47;99.91;98960.59;181104;1265;43697;-71
2023/03/06 22:57:47;;;;;;;12.10;9.70;;;;;;;3.47;98.19;98960.81;181222;1264;57888;-72
2023/03/06 23:02:46;;;;;;;11.50;8.20;;;;;;;3.26;98.28;98959.35;181174;1264;43425;-72
2023/03/06 23:06:49;;;;;;;21.80;12.90;;;;;;;3.08;99.09;98960.25;181228;1264;43121;-73
2023/03/06 23:11:45;;;;;;;28.40;15.50;;;;;;;3.01;99.65;98959.05;181095;1264;44004;-71
2023/03/06 23:15:48;;;;;;;16.80;10.70;;;;;;;3.04;99.66;98958.30;181181;1264;43458;-71
2023/03/06 23:19:51;;;;;;;20.30;12.20;;;;;;;3.14;99.88;98955.64;181042;1265;57985;-72
2023/03/06 23:23:54;;;;;;;17.00;11.90;;;;;;;3.29;99.91;98964.02;181129;1264;43674;-72
2023/03/06 23:27:57;;;;;;;18.60;10.70;;;;;;;3.33;98.45;98965.12;181094;1265;43063;-71
2023/03/06 23:32:00;;;;;;;12.60;9.20;;;;;;;3.36;98.59;98961.75;181126;1265;43537;-70